sensor_id;sensor_type;location;lat;lon;timestamp;P1;durP1;ratioP1;P2;durP2;ratioP2
67828;SDS011;54626;45.436;10.942;2023-03-20T00:02:02;1.48;;;1.38;;
67828;SDS011;54626;45.436;10.942;2023-03-20T00:04:32;3.83;;;3.25;;
67828;SDS011;54626;45.436;10.942;2023-03-20T00:07:01;2.42;;;2.00;;
67828;SDS011;54626;45.436;10.942;2023-03-20T00:09:28;4.28;;;3.58;;
67828;SDS011;54626;45.436;10.942;2023-03-20T00:11:56;2.70;;;2.40;;
67828;SDS011;54626;45.436;10.942;2023-03-20T00:14:23;3.70;;;1.92;;
67828;SDS011;54626;45.436;10.942;2023-03-20T00:16:52;2.60;;;1.85;;
67828;SDS011;54626;45.436;10.942;2023-03-20T00:21:49;6.65;;;2.25;;
67828;SDS011;54626;45.436;10.942;2023-03-20T00:24:17;5.00;;;1.83;;
67828;SDS011;54626;45.436;10.942;2023-03-20T00:26:45;4.35;;;1.52;;
67828;SDS011;54626;45.436;10.942;2023-03-20T00:29:20;2.33;;;2.13;;
67828;SDS011;54626;45.436;10.942;2023-03-20T00:31:47;4.65;;;2.58;;
67828;SDS011;54626;45.436;10.942;2023-03-20T00:34:15;6.22;;;2.95;;
67828;SDS011;54626;45.436;10.942;2023-03-20T00:36:44;3.60;;;1.63;;
67828;SDS011;54626;45.436;10.942;2023-03-20T00:39:11;2.13;;;1.95;;
67828;SDS011;54626;45.436;10.942;2023-03-20T00:46:40;6.13;;;3.58;;
67828;SDS011;54626;45.436;10.942;2023-03-20T00:49:08;4.72;;;2.20;;
67828;SDS011;54626;45.436;10.942;2023-03-20T00:51:36;2.95;;;2.65;;
67828;SDS011;54626;45.436;10.942;2023-03-20T00:54:05;5.28;;;3.92;;
67828;SDS011;54626;45.436;10.942;2023-03-20T00:56:39;1.98;;;1.75;;
67828;SDS011;54626;45.436;10.942;2023-03-20T00:59:12;6.07;;;2.40;;
67828;SDS011;54626;45.436;10.942;2023-03-20T01:01:46;2.58;;;2.15;;
67828;SDS011;54626;45.436;10.942;2023-03-20T01:04:14;2.50;;;2.30;;
67828;SDS011;54626;45.436;10.942;2023-03-20T01:06:43;5.07;;;3.20;;
67828;SDS011;54626;45.436;10.942;2023-03-20T01:09:09;4.28;;;2.47;;
67828;SDS011;54626;45.436;10.942;2023-03-20T01:11:36;3.20;;;2.78;;
67828;SDS011;54626;45.436;10.942;2023-03-20T01:14:05;4.03;;;3.00;;
67828;SDS011;54626;45.436;10.942;2023-03-20T01:16:41;5.80;;;2.45;;
67828;SDS011;54626;45.436;10.942;2023-03-20T01:19:11;1.35;;;1.17;;
67828;SDS011;54626;45.436;10.942;2023-03-20T01:21:39;8.15;;;3.38;;
67828;SDS011;54626;45.436;10.942;2023-03-20T01:24:06;2.63;;;2.40;;
67828;SDS011;54626;45.436;10.942;2023-03-20T01:26:37;9.98;;;2.95;;
67828;SDS011;54626;45.436;10.942;2023-03-20T01:29:25;4.85;;;2.53;;
67828;SDS011;54626;45.436;10.942;2023-03-20T01:31:55;3.45;;;2.05;;
67828;SDS011;54626;45.436;10.942;2023-03-20T01:34:23;7.55;;;2.65;;
67828;SDS011;54626;45.436;10.942;2023-03-20T01:36:50;4.68;;;2.38;;
67828;SDS011;54626;45.436;10.942;2023-03-20T01:39:19;2.42;;;1.15;;
67828;SDS011;54626;45.436;10.942;2023-03-20T01:41:49;2.55;;;1.80;;
67828;SDS011;54626;45.436;10.942;2023-03-20T01:44:19;2.10;;;1.40;;
67828;SDS011;54626;45.436;10.942;2023-03-20T01:46:51;1.25;;;1.20;;
67828;SDS011;54626;45.436;10.942;2023-03-20T01:51:48;2.40;;;1.95;;
67828;SDS011;54626;45.436;10.942;2023-03-20T01:56:56;8.50;;;3.80;;
67828;SDS011;54626;45.436;10.942;2023-03-20T01:59:28;6.05;;;2.38;;
67828;SDS011;54626;45.436;10.942;2023-03-20T02:02:04;4.53;;;2.72;;
67828;SDS011;54626;45.436;10.942;2023-03-20T02:04:35;4.85;;;3.08;;
67828;SDS011;54626;45.436;10.942;2023-03-20T02:07:09;4.50;;;2.60;;
67828;SDS011;54626;45.436;10.942;2023-03-20T02:09:38;2.95;;;2.00;;
67828;SDS011;54626;45.436;10.942;2023-03-20T02:12:05;6.07;;;2.95;;
67828;SDS011;54626;45.436;10.942;2023-03-20T02:14:36;5.18;;;2.15;;
67828;SDS011;54626;45.436;10.942;2023-03-20T02:17:03;3.85;;;2.42;;
67828;SDS011;54626;45.436;10.942;2023-03-20T02:27:23;2.85;;;2.00;;
67828;SDS011;54626;45.436;10.942;2023-03-20T02:33:04;4.13;;;2.35;;
67828;SDS011;54626;45.436;10.942;2023-03-20T02:39:14;0.88;;;0.88;;
67828;SDS011;54626;45.436;10.942;2023-03-20T02:41:50;2.08;;;1.88;;
67828;SDS011;54626;45.436;10.942;2023-03-20T02:47:09;2.75;;;2.50;;
67828;SDS011;54626;45.436;10.942;2023-03-20T02:49:53;3.30;;;2.45;;
67828;SDS011;54626;45.436;10.942;2023-03-20T02:52:27;9.02;;;2.72;;
67828;SDS011;54626;45.436;10.942;2023-03-20T03:00:19;4.18;;;1.90;;
67828;SDS011;54626;45.436;10.942;2023-03-20T03:02:58;4.28;;;2.40;;
67828;SDS011;54626;45.436;10.942;2023-03-20T03:06:11;1.75;;;1.65;;
67828;SDS011;54626;45.436;10.942;2023-03-20T03:08:47;0.80;;;0.80;;
67828;SDS011;54626;45.436;10.942;2023-03-20T03:11:17;1.38;;;1.20;;
67828;SDS011;54626;45.436;10.942;2023-03-20T03:13:45;3.13;;;2.85;;
67828;SDS011;54626;45.436;10.942;2023-03-20T03:16:18;1.60;;;1.50;;
67828;SDS011;54626;45.436;10.942;2023-03-20T03:18:51;2.20;;;2.05;;
67828;SDS011;54626;45.436;10.942;2023-03-20T03:21:26;4.90;;;3.83;;
67828;SDS011;54626;45.436;10.942;2023-03-20T03:23:55;3.83;;;3.47;;
67828;SDS011;54626;45.436;10.942;2023-03-20T03:26:25;3.42;;;2.63;;
67828;SDS011;54626;45.436;10.942;2023-03-20T03:28:57;6.10;;;3.53;;
67828;SDS011;54626;45.436;10.942;2023-03-20T03:31:27;2.78;;;1.60;;
67828;SDS011;54626;45.436;10.942;2023-03-20T03:33:55;7.55;;;1.55;;
67828;SDS011;54626;45.436;10.942;2023-03-20T03:44:31;3.20;;;1.75;;
67828;SDS011;54626;45.436;10.942;2023-03-20T03:47:18;4.57;;;2.83;;
67828;SDS011;54626;45.436;10.942;2023-03-20T03:50:04;6.88;;;2.92;;
67828;SDS011;54626;45.436;10.942;2023-03-20T03:52:37;4.25;;;1.60;;
67828;SDS011;54626;45.436;10.942;2023-03-20T03:55:07;3.50;;;1.65;;
67828;SDS011;54626;45.436;10.942;2023-03-20T03:57:41;1.38;;;1.27;;
67828;SDS011;54626;45.436;10.942;2023-03-20T04:00:12;3.05;;;1.40;;
67828;SDS011;54626;45.436;10.942;2023-03-20T04:02:44;7.72;;;1.98;;
67828;SDS011;54626;45.436;10.942;2023-03-20T04:05:12;3.60;;;1.67;;
67828;SDS011;54626;45.436;10.942;2023-03-20T04:07:45;5.15;;;1.55;;
67828;SDS011;54626;45.436;10.942;2023-03-20T04:10:13;8.45;;;3.70;;
67828;SDS011;54626;45.436;10.942;2023-03-20T04:12:41;2.38;;;1.85;;
67828;SDS011;54626;45.436;10.942;2023-03-20T04:15:13;3.22;;;2.55;;
67828;SDS011;54626;45.436;10.942;2023-03-20T04:17:43;2.30;;;2.10;;
67828;SDS011;54626;45.436;10.942;2023-03-20T04:20:10;4.10;;;1.50;;
67828;SDS011;54626;45.436;10.942;2023-03-20T04:22:39;3.90;;;1.55;;
67828;SDS011;54626;45.436;10.942;2023-03-20T04:27:33;5.68;;;1.67;;
67828;SDS011;54626;45.436;10.942;2023-03-20T04:30:00;0.88;;;0.88;;
67828;SDS011;54626;45.436;10.942;2023-03-20T04:34:53;2.58;;;2.38;;
67828;SDS011;54626;45.436;10.942;2023-03-20T04:37:21;3.00;;;2.00;;
67828;SDS011;54626;45.436;10.942;2023-03-20T04:39:51;1.90;;;1.80;;
67828;SDS011;54626;45.436;10.942;2023-03-20T04:42:18;2.08;;;1.55;;
67828;SDS011;54626;45.436;10.942;2023-03-20T04:44:44;3.30;;;2.28;;
67828;SDS011;54626;45.436;10.942;2023-03-20T04:47:11;2.15;;;1.80;;
67828;SDS011;54626;45.436;10.942;2023-03-20T04:52:04;1.55;;;1.45;;
67828;SDS011;54626;45.436;10.942;2023-03-20T04:54:31;2.67;;;2.10;;
67828;SDS011;54626;45.436;10.942;2023-03-20T04:56:57;6.32;;;2.83;;
67828;SDS011;54626;45.436;10.942;2023-03-20T04:59:25;2.65;;;2.28;;
67828;SDS011;54626;45.436;10.942;2023-03-20T05:01:51;3.05;;;2.83;;
67828;SDS011;54626;45.436;10.942;2023-03-20T05:04:19;2.63;;;2.30;;
67828;SDS011;54626;45.436;10.942;2023-03-20T05:06:49;2.60;;;2.40;;
67828;SDS011;54626;45.436;10.942;2023-03-20T05:09:21;4.78;;;2.67;;
67828;SDS011;54626;45.436;10.942;2023-03-20T05:11:50;8.50;;;2.33;;
67828;SDS011;54626;45.436;10.942;2023-03-20T05:14:21;1.40;;;1.30;;
67828;SDS011;54626;45.436;10.942;2023-03-20T05:16:47;8.45;;;3.22;;
67828;SDS011;54626;45.436;10.942;2023-03-20T05:19:15;2.55;;;1.77;;
67828;SDS011;54626;45.436;10.942;2023-03-20T05:21:41;2.30;;;2.10;;
67828;SDS011;54626;45.436;10.942;2023-03-20T05:24:08;2.40;;;2.25;;
67828;SDS011;54626;45.436;10.942;2023-03-20T05:26:34;1.95;;;1.85;;
67828;SDS011;54626;45.436;10.942;2023-03-20T05:29:01;0.85;;;0.80;;
67828;SDS011;54626;45.436;10.942;2023-03-20T05:31:28;3.28;;;2.72;;
67828;SDS011;54626;45.436;10.942;2023-03-20T05:33:54;3.85;;;3.00;;
67828;SDS011;54626;45.436;10.942;2023-03-20T05:36:23;3.72;;;2.53;;
67828;SDS011;54626;45.436;10.942;2023-03-20T05:38:49;4.80;;;2.40;;
67828;SDS011;54626;45.436;10.942;2023-03-20T05:41:16;5.70;;;3.53;;
67828;SDS011;54626;45.436;10.942;2023-03-20T05:43:42;4.05;;;2.67;;
67828;SDS011;54626;45.436;10.942;2023-03-20T05:46:09;2.25;;;1.63;;
67828;SDS011;54626;45.436;10.942;2023-03-20T05:51:02;3.65;;;2.28;;
67828;SDS011;54626;45.436;10.942;2023-03-20T05:53:28;10.63;;;2.90;;
67828;SDS011;54626;45.436;10.942;2023-03-20T05:55:57;5.40;;;2.53;;
67828;SDS011;54626;45.436;10.942;2023-03-20T05:58:26;1.70;;;1.60;;
67828;SDS011;54626;45.436;10.942;2023-03-20T06:00:58;10.80;;;2.72;;
67828;SDS011;54626;45.436;10.942;2023-03-20T06:03:25;1.92;;;1.80;;
67828;SDS011;54626;45.436;10.942;2023-03-20T06:08:18;2.53;;;1.88;;
67828;SDS011;54626;45.436;10.942;2023-03-20T06:10:44;3.97;;;3.67;;
67828;SDS011;54626;45.436;10.942;2023-03-20T06:13:14;5.43;;;2.42;;
67828;SDS011;54626;45.436;10.942;2023-03-20T06:18:09;1.38;;;0.90;;
67828;SDS011;54626;45.436;10.942;2023-03-20T06:23:02;0.70;;;0.70;;
67828;SDS011;54626;45.436;10.942;2023-03-20T06:25:29;0.93;;;0.80;;
67828;SDS011;54626;45.436;10.942;2023-03-20T06:27:55;3.15;;;2.90;;
67828;SDS011;54626;45.436;10.942;2023-03-20T06:30:23;2.40;;;1.98;;
67828;SDS011;54626;45.436;10.942;2023-03-20T06:32:49;1.40;;;0.88;;
67828;SDS011;54626;45.436;10.942;2023-03-20T06:35:16;2.42;;;2.22;;
67828;SDS011;54626;45.436;10.942;2023-03-20T06:37:43;2.88;;;2.25;;
67828;SDS011;54626;45.436;10.942;2023-03-20T06:40:10;3.72;;;3.00;;
67828;SDS011;54626;45.436;10.942;2023-03-20T06:42:38;4.90;;;3.15;;
67828;SDS011;54626;45.436;10.942;2023-03-20T06:47:31;4.63;;;2.40;;
67828;SDS011;54626;45.436;10.942;2023-03-20T06:49:58;5.82;;;2.55;;
67828;SDS011;54626;45.436;10.942;2023-03-20T06:52:25;1.80;;;1.65;;
67828;SDS011;54626;45.436;10.942;2023-03-20T06:54:54;10.02;;;4.05;;
67828;SDS011;54626;45.436;10.942;2023-03-20T06:57:21;3.80;;;3.47;;
67828;SDS011;54626;45.436;10.942;2023-03-20T06:59:48;4.03;;;2.70;;
67828;SDS011;54626;45.436;10.942;2023-03-20T07:02:14;2.67;;;1.40;;
67828;SDS011;54626;45.436;10.942;2023-03-20T07:04:42;3.40;;;2.25;;
67828;SDS011;54626;45.436;10.942;2023-03-20T07:07:11;6.43;;;4.00;;
67828;SDS011;54626;45.436;10.942;2023-03-20T07:09:37;6.82;;;3.00;;
67828;SDS011;54626;45.436;10.942;2023-03-20T07:12:04;6.20;;;3.97;;
67828;SDS011;54626;45.436;10.942;2023-03-20T07:14:36;2.65;;;2.50;;
67828;SDS011;54626;45.436;10.942;2023-03-20T07:17:03;3.42;;;2.28;;
67828;SDS011;54626;45.436;10.942;2023-03-20T07:19:29;4.30;;;2.83;;
67828;SDS011;54626;45.436;10.942;2023-03-20T07:21:57;5.18;;;3.42;;
67828;SDS011;54626;45.436;10.942;2023-03-20T07:24:27;5.28;;;3.75;;
67828;SDS011;54626;45.436;10.942;2023-03-20T07:26:54;1.88;;;1.55;;
67828;SDS011;54626;45.436;10.942;2023-03-20T07:29:20;5.85;;;2.17;;
67828;SDS011;54626;45.436;10.942;2023-03-20T07:31:47;3.95;;;3.60;;
67828;SDS011;54626;45.436;10.942;2023-03-20T07:34:14;3.38;;;2.90;;
67828;SDS011;54626;45.436;10.942;2023-03-20T07:36:40;4.90;;;3.75;;
67828;SDS011;54626;45.436;10.942;2023-03-20T07:39:07;7.13;;;4.13;;
67828;SDS011;54626;45.436;10.942;2023-03-20T07:41:34;5.25;;;4.63;;
67828;SDS011;54626;45.436;10.942;2023-03-20T07:44:01;8.73;;;4.25;;
67828;SDS011;54626;45.436;10.942;2023-03-20T07:46:27;2.97;;;2.67;;
67828;SDS011;54626;45.436;10.942;2023-03-20T07:51:23;2.35;;;2.15;;
67828;SDS011;54626;45.436;10.942;2023-03-20T07:53:50;3.58;;;2.17;;
67828;SDS011;54626;45.436;10.942;2023-03-20T07:58:42;4.03;;;3.28;;
67828;SDS011;54626;45.436;10.942;2023-03-20T08:01:09;2.03;;;1.40;;
67828;SDS011;54626;45.436;10.942;2023-03-20T08:06:03;2.30;;;2.10;;
67828;SDS011;54626;45.436;10.942;2023-03-20T08:08:32;4.88;;;2.35;;
67828;SDS011;54626;45.436;10.942;2023-03-20T08:13:25;2.80;;;2.58;;
67828;SDS011;54626;45.436;10.942;2023-03-20T08:15:52;4.45;;;2.90;;
67828;SDS011;54626;45.436;10.942;2023-03-20T08:18:18;2.47;;;2.28;;
67828;SDS011;54626;45.436;10.942;2023-03-20T08:20:47;9.23;;;5.53;;
67828;SDS011;54626;45.436;10.942;2023-03-20T08:23:15;6.40;;;3.50;;
67828;SDS011;54626;45.436;10.942;2023-03-20T08:25:49;13.68;;;4.00;;
67828;SDS011;54626;45.436;10.942;2023-03-20T08:28:16;10.20;;;5.72;;
67828;SDS011;54626;45.436;10.942;2023-03-20T08:30:43;4.60;;;3.20;;
67828;SDS011;54626;45.436;10.942;2023-03-20T08:33:10;4.32;;;3.15;;
67828;SDS011;54626;45.436;10.942;2023-03-20T08:35:37;9.70;;;2.88;;
67828;SDS011;54626;45.436;10.942;2023-03-20T08:38:04;7.40;;;3.97;;
67828;SDS011;54626;45.436;10.942;2023-03-20T08:40:30;3.30;;;2.22;;
67828;SDS011;54626;45.436;10.942;2023-03-20T08:42:57;4.18;;;1.85;;
67828;SDS011;54626;45.436;10.942;2023-03-20T08:45:24;6.38;;;3.78;;
67828;SDS011;54626;45.436;10.942;2023-03-20T08:47:51;3.45;;;2.13;;
67828;SDS011;54626;45.436;10.942;2023-03-20T08:50:18;4.13;;;3.38;;
67828;SDS011;54626;45.436;10.942;2023-03-20T08:52:45;3.28;;;2.53;;
67828;SDS011;54626;45.436;10.942;2023-03-20T08:55:12;5.88;;;2.63;;
67828;SDS011;54626;45.436;10.942;2023-03-20T08:57:40;2.30;;;1.67;;
67828;SDS011;54626;45.436;10.942;2023-03-20T09:00:07;9.52;;;4.35;;
67828;SDS011;54626;45.436;10.942;2023-03-20T09:02:38;9.25;;;3.80;;
67828;SDS011;54626;45.436;10.942;2023-03-20T09:05:04;4.70;;;4.00;;
67828;SDS011;54626;45.436;10.942;2023-03-20T09:07:31;10.05;;;3.13;;
67828;SDS011;54626;45.436;10.942;2023-03-20T09:09:58;9.95;;;3.65;;
67828;SDS011;54626;45.436;10.942;2023-03-20T09:12:24;5.07;;;3.28;;
67828;SDS011;54626;45.436;10.942;2023-03-20T09:14:51;5.03;;;3.75;;
67828;SDS011;54626;45.436;10.942;2023-03-20T09:17:17;5.72;;;3.45;;
67828;SDS011;54626;45.436;10.942;2023-03-20T09:19:44;6.40;;;3.60;;
67828;SDS011;54626;45.436;10.942;2023-03-20T09:22:11;5.10;;;3.42;;
67828;SDS011;54626;45.436;10.942;2023-03-20T09:24:38;7.53;;;3.08;;
67828;SDS011;54626;45.436;10.942;2023-03-20T09:27:05;7.43;;;4.47;;
67828;SDS011;54626;45.436;10.942;2023-03-20T09:29:32;17.80;;;2.95;;
67828;SDS011;54626;45.436;10.942;2023-03-20T09:31:59;7.63;;;4.40;;
67828;SDS011;54626;45.436;10.942;2023-03-20T09:34:26;6.93;;;3.28;;
67828;SDS011;54626;45.436;10.942;2023-03-20T09:36:53;4.82;;;3.78;;
67828;SDS011;54626;45.436;10.942;2023-03-20T09:39:19;8.20;;;3.85;;
67828;SDS011;54626;45.436;10.942;2023-03-20T09:41:49;10.32;;;4.55;;
67828;SDS011;54626;45.436;10.942;2023-03-20T09:50:12;7.90;;;4.55;;
67828;SDS011;54626;45.436;10.942;2023-03-20T09:52:42;7.10;;;3.17;;
67828;SDS011;54626;45.436;10.942;2023-03-20T09:55:14;5.63;;;3.13;;
67828;SDS011;54626;45.436;10.942;2023-03-20T09:57:48;2.63;;;2.22;;
67828;SDS011;54626;45.436;10.942;2023-03-20T10:00:18;7.50;;;2.47;;
67828;SDS011;54626;45.436;10.942;2023-03-20T10:02:47;9.90;;;5.38;;
67828;SDS011;54626;45.436;10.942;2023-03-20T10:07:48;2.75;;;2.00;;
67828;SDS011;54626;45.436;10.942;2023-03-20T10:10:15;10.00;;;4.03;;
67828;SDS011;54626;45.436;10.942;2023-03-20T10:12:55;4.43;;;2.95;;
67828;SDS011;54626;45.436;10.942;2023-03-20T10:20:43;11.38;;;3.97;;
67828;SDS011;54626;45.436;10.942;2023-03-20T10:24:16;6.13;;;3.60;;
67828;SDS011;54626;45.436;10.942;2023-03-20T10:26:27;2.03;;;1.65;;
67828;SDS011;54626;45.436;10.942;2023-03-20T10:28:57;6.45;;;4.03;;
67828;SDS011;54626;45.436;10.942;2023-03-20T10:42:41;7.45;;;2.97;;
67828;SDS011;54626;45.436;10.942;2023-03-20T10:47:46;9.05;;;4.53;;
67828;SDS011;54626;45.436;10.942;2023-03-20T10:50:17;7.88;;;4.10;;
67828;SDS011;54626;45.436;10.942;2023-03-20T10:52:47;12.55;;;3.60;;
67828;SDS011;54626;45.436;10.942;2023-03-20T10:55:19;8.10;;;3.50;;
67828;SDS011;54626;45.436;10.942;2023-03-20T10:57:55;7.78;;;3.28;;
67828;SDS011;54626;45.436;10.942;2023-03-20T11:00:25;6.00;;;2.83;;
67828;SDS011;54626;45.436;10.942;2023-03-20T11:02:53;5.35;;;3.88;;
67828;SDS011;54626;45.436;10.942;2023-03-20T11:05:24;7.85;;;3.90;;
67828;SDS011;54626;45.436;10.942;2023-03-20T11:08:03;5.68;;;4.13;;
67828;SDS011;54626;45.436;10.942;2023-03-20T11:10:33;7.22;;;4.20;;
67828;SDS011;54626;45.436;10.942;2023-03-20T11:13:15;7.07;;;3.80;;
67828;SDS011;54626;45.436;10.942;2023-03-20T11:15:52;7.15;;;3.60;;
67828;SDS011;54626;45.436;10.942;2023-03-20T11:18:20;7.13;;;4.55;;
67828;SDS011;54626;45.436;10.942;2023-03-20T11:23:18;10.13;;;4.57;;
67828;SDS011;54626;45.436;10.942;2023-03-20T11:28:35;14.68;;;5.57;;
67828;SDS011;54626;45.436;10.942;2023-03-20T11:31:36;8.48;;;3.90;;
67828;SDS011;54626;45.436;10.942;2023-03-20T11:36:44;6.63;;;4.10;;
67828;SDS011;54626;45.436;10.942;2023-03-20T11:39:34;6.10;;;4.10;;
67828;SDS011;54626;45.436;10.942;2023-03-20T11:42:03;7.22;;;3.42;;
67828;SDS011;54626;45.436;10.942;2023-03-20T11:44:34;9.10;;;4.30;;
67828;SDS011;54626;45.436;10.942;2023-03-20T11:47:03;7.75;;;4.85;;
67828;SDS011;54626;45.436;10.942;2023-03-20T11:52:55;8.48;;;3.90;;
67828;SDS011;54626;45.436;10.942;2023-03-20T11:55:31;6.13;;;3.47;;
67828;SDS011;54626;45.436;10.942;2023-03-20T11:58:00;11.40;;;5.15;;
67828;SDS011;54626;45.436;10.942;2023-03-20T12:00:39;10.40;;;5.00;;
67828;SDS011;54626;45.436;10.942;2023-03-20T12:06:14;9.43;;;4.70;;
67828;SDS011;54626;45.436;10.942;2023-03-20T12:11:48;7.85;;;4.05;;
67828;SDS011;54626;45.436;10.942;2023-03-20T12:16:52;8.23;;;5.65;;
67828;SDS011;54626;45.436;10.942;2023-03-20T12:19:28;8.95;;;4.28;;
67828;SDS011;54626;45.436;10.942;2023-03-20T12:22:00;14.80;;;6.63;;
67828;SDS011;54626;45.436;10.942;2023-03-20T12:24:40;6.40;;;3.47;;
67828;SDS011;54626;45.436;10.942;2023-03-20T12:27:16;6.70;;;3.42;;
67828;SDS011;54626;45.436;10.942;2023-03-20T12:33:03;6.90;;;3.40;;
67828;SDS011;54626;45.436;10.942;2023-03-20T12:35:43;8.90;;;4.68;;
67828;SDS011;54626;45.436;10.942;2023-03-20T12:38:29;9.85;;;4.75;;
67828;SDS011;54626;45.436;10.942;2023-03-20T12:41:01;9.10;;;3.80;;
67828;SDS011;54626;45.436;10.942;2023-03-20T12:47:39;6.50;;;3.83;;
67828;SDS011;54626;45.436;10.942;2023-03-20T12:52:48;5.05;;;2.60;;
67828;SDS011;54626;45.436;10.942;2023-03-20T13:00:54;6.60;;;4.07;;
67828;SDS011;54626;45.436;10.942;2023-03-20T13:09:25;9.40;;;4.57;;
67828;SDS011;54626;45.436;10.942;2023-03-20T13:19:40;7.25;;;4.43;;
67828;SDS011;54626;45.436;10.942;2023-03-20T13:24:16;11.35;;;6.25;;
67828;SDS011;54626;45.436;10.942;2023-03-20T13:27:02;8.60;;;3.75;;
67828;SDS011;54626;45.436;10.942;2023-03-20T13:29:44;10.20;;;3.78;;
67828;SDS011;54626;45.436;10.942;2023-03-20T13:32:33;8.95;;;5.15;;
67828;SDS011;54626;45.436;10.942;2023-03-20T13:37:54;4.97;;;3.55;;
67828;SDS011;54626;45.436;10.942;2023-03-20T13:40:28;7.25;;;4.78;;
67828;SDS011;54626;45.436;10.942;2023-03-20T13:43:32;8.80;;;5.60;;
67828;SDS011;54626;45.436;10.942;2023-03-20T13:45:55;7.28;;;3.35;;
67828;SDS011;54626;45.436;10.942;2023-03-20T13:48:42;7.28;;;4.50;;
67828;SDS011;54626;45.436;10.942;2023-03-20T13:51:30;8.00;;;4.35;;
67828;SDS011;54626;45.436;10.942;2023-03-20T13:56:39;12.85;;;3.72;;
67828;SDS011;54626;45.436;10.942;2023-03-20T14:04:44;8.52;;;4.45;;
67828;SDS011;54626;45.436;10.942;2023-03-20T14:07:29;9.52;;;5.10;;
67828;SDS011;54626;45.436;10.942;2023-03-20T14:12:57;8.40;;;4.30;;
67828;SDS011;54626;45.436;10.942;2023-03-20T14:15:35;7.45;;;3.33;;
67828;SDS011;54626;45.436;10.942;2023-03-20T14:18:11;9.85;;;4.75;;
67828;SDS011;54626;45.436;10.942;2023-03-20T14:20:41;6.65;;;4.00;;
67828;SDS011;54626;45.436;10.942;2023-03-20T14:23:19;5.97;;;4.57;;
67828;SDS011;54626;45.436;10.942;2023-03-20T14:25:52;12.68;;;6.10;;
67828;SDS011;54626;45.436;10.942;2023-03-20T14:30:47;11.27;;;5.30;;
67828;SDS011;54626;45.436;10.942;2023-03-20T14:35:43;10.10;;;4.65;;
67828;SDS011;54626;45.436;10.942;2023-03-20T14:38:40;9.60;;;4.10;;
67828;SDS011;54626;45.436;10.942;2023-03-20T14:41:24;7.47;;;3.90;;
67828;SDS011;54626;45.436;10.942;2023-03-20T14:46:55;8.88;;;4.40;;
67828;SDS011;54626;45.436;10.942;2023-03-20T14:57:45;8.00;;;4.30;;
67828;SDS011;54626;45.436;10.942;2023-03-20T15:00:22;9.52;;;5.18;;
67828;SDS011;54626;45.436;10.942;2023-03-20T15:02:57;10.02;;;6.22;;
67828;SDS011;54626;45.436;10.942;2023-03-20T15:05:33;9.25;;;5.50;;
67828;SDS011;54626;45.436;10.942;2023-03-20T15:08:06;12.57;;;4.45;;
67828;SDS011;54626;45.436;10.942;2023-03-20T15:10:35;8.55;;;4.10;;
67828;SDS011;54626;45.436;10.942;2023-03-20T15:13:10;8.48;;;4.65;;
67828;SDS011;54626;45.436;10.942;2023-03-20T15:15:50;7.72;;;4.22;;
67828;SDS011;54626;45.436;10.942;2023-03-20T15:18:19;10.20;;;6.22;;
67828;SDS011;54626;45.436;10.942;2023-03-20T15:20:47;12.18;;;5.38;;
67828;SDS011;54626;45.436;10.942;2023-03-20T15:23:14;9.07;;;4.40;;
67828;SDS011;54626;45.436;10.942;2023-03-20T15:25:44;10.27;;;4.68;;
67828;SDS011;54626;45.436;10.942;2023-03-20T15:28:25;16.23;;;5.97;;
67828;SDS011;54626;45.436;10.942;2023-03-20T15:30:55;8.38;;;4.18;;
67828;SDS011;54626;45.436;10.942;2023-03-20T15:33:33;10.35;;;5.65;;
67828;SDS011;54626;45.436;10.942;2023-03-20T15:36:14;8.20;;;3.60;;
67828;SDS011;54626;45.436;10.942;2023-03-20T15:38:43;10.98;;;5.20;;
67828;SDS011;54626;45.436;10.942;2023-03-20T15:41:25;7.95;;;5.32;;
67828;SDS011;54626;45.436;10.942;2023-03-20T15:44:01;6.43;;;4.10;;
67828;SDS011;54626;45.436;10.942;2023-03-20T15:46:49;13.00;;;4.07;;
67828;SDS011;54626;45.436;10.942;2023-03-20T15:49:32;10.18;;;6.18;;
67828;SDS011;54626;45.436;10.942;2023-03-20T15:52:00;5.97;;;3.63;;
67828;SDS011;54626;45.436;10.942;2023-03-20T15:54:30;9.43;;;4.10;;
67828;SDS011;54626;45.436;10.942;2023-03-20T15:56:59;6.38;;;4.78;;
67828;SDS011;54626;45.436;10.942;2023-03-20T15:59:28;9.35;;;5.20;;
67828;SDS011;54626;45.436;10.942;2023-03-20T16:01:57;10.52;;;6.15;;
67828;SDS011;54626;45.436;10.942;2023-03-20T16:04:26;7.85;;;3.22;;
67828;SDS011;54626;45.436;10.942;2023-03-20T16:07:00;8.55;;;5.07;;
67828;SDS011;54626;45.436;10.942;2023-03-20T16:09:27;7.38;;;3.38;;
67828;SDS011;54626;45.436;10.942;2023-03-20T16:11:58;5.65;;;3.25;;
67828;SDS011;54626;45.436;10.942;2023-03-20T16:14:29;9.13;;;4.43;;
67828;SDS011;54626;45.436;10.942;2023-03-20T16:17:11;11.20;;;4.85;;
67828;SDS011;54626;45.436;10.942;2023-03-20T16:19:39;10.20;;;3.83;;
67828;SDS011;54626;45.436;10.942;2023-03-20T16:22:15;10.98;;;5.00;;
67828;SDS011;54626;45.436;10.942;2023-03-20T16:24:46;10.80;;;4.50;;
67828;SDS011;54626;45.436;10.942;2023-03-20T16:27:19;9.38;;;5.15;;
67828;SDS011;54626;45.436;10.942;2023-03-20T16:29:53;7.93;;;5.25;;
67828;SDS011;54626;45.436;10.942;2023-03-20T16:35:15;12.10;;;5.57;;
67828;SDS011;54626;45.436;10.942;2023-03-20T16:37:48;6.07;;;4.53;;
67828;SDS011;54626;45.436;10.942;2023-03-20T16:40:19;6.30;;;4.18;;
67828;SDS011;54626;45.436;10.942;2023-03-20T16:42:53;6.32;;;4.40;;
67828;SDS011;54626;45.436;10.942;2023-03-20T16:45:27;9.32;;;5.72;;
67828;SDS011;54626;45.436;10.942;2023-03-20T16:48:30;14.15;;;4.80;;
67828;SDS011;54626;45.436;10.942;2023-03-20T16:53:45;3.63;;;2.88;;
67828;SDS011;54626;45.436;10.942;2023-03-20T16:56:20;8.20;;;4.15;;
67828;SDS011;54626;45.436;10.942;2023-03-20T16:59:08;21.77;;;9.65;;
67828;SDS011;54626;45.436;10.942;2023-03-20T17:01:43;15.13;;;8.60;;
67828;SDS011;54626;45.436;10.942;2023-03-20T17:04:21;15.43;;;8.13;;
67828;SDS011;54626;45.436;10.942;2023-03-20T17:12:46;7.07;;;3.65;;
67828;SDS011;54626;45.436;10.942;2023-03-20T17:15:15;9.75;;;5.07;;
67828;SDS011;54626;45.436;10.942;2023-03-20T17:17:57;8.07;;;4.18;;
67828;SDS011;54626;45.436;10.942;2023-03-20T17:20:25;4.57;;;2.00;;
67828;SDS011;54626;45.436;10.942;2023-03-20T17:22:53;7.07;;;3.00;;
67828;SDS011;54626;45.436;10.942;2023-03-20T17:25:19;8.27;;;4.15;;
67828;SDS011;54626;45.436;10.942;2023-03-20T17:27:46;7.03;;;5.35;;
67828;SDS011;54626;45.436;10.942;2023-03-20T17:30:19;8.18;;;4.57;;
67828;SDS011;54626;45.436;10.942;2023-03-20T17:32:57;7.75;;;4.65;;
67828;SDS011;54626;45.436;10.942;2023-03-20T17:35:31;4.90;;;2.80;;
67828;SDS011;54626;45.436;10.942;2023-03-20T17:38:01;11.45;;;4.63;;
67828;SDS011;54626;45.436;10.942;2023-03-20T17:40:29;8.95;;;3.58;;
67828;SDS011;54626;45.436;10.942;2023-03-20T17:42:55;8.48;;;4.50;;
67828;SDS011;54626;45.436;10.942;2023-03-20T17:45:25;10.77;;;4.18;;
67828;SDS011;54626;45.436;10.942;2023-03-20T17:47:56;4.57;;;3.92;;
67828;SDS011;54626;45.436;10.942;2023-03-20T17:50:22;9.80;;;4.03;;
67828;SDS011;54626;45.436;10.942;2023-03-20T17:52:52;5.80;;;3.25;;
67828;SDS011;54626;45.436;10.942;2023-03-20T17:55:42;4.50;;;3.30;;
67828;SDS011;54626;45.436;10.942;2023-03-20T17:58:16;5.20;;;4.15;;
67828;SDS011;54626;45.436;10.942;2023-03-20T18:00:46;5.80;;;2.95;;
67828;SDS011;54626;45.436;10.942;2023-03-20T18:03:23;5.80;;;2.55;;
67828;SDS011;54626;45.436;10.942;2023-03-20T18:05:50;5.60;;;3.83;;
67828;SDS011;54626;45.436;10.942;2023-03-20T18:08:18;6.20;;;3.75;;
67828;SDS011;54626;45.436;10.942;2023-03-20T18:10:50;5.35;;;3.15;;